createdAt,value
2023-03-18T00:00:32.734Z,28.96
2023-03-18T00:01:35.198Z,29.11
2023-03-18T00:02:39.045Z,29.17
2023-03-18T00:03:41.030Z,29.05
2023-03-18T00:04:42.855Z,28.97
2023-03-18T00:05:45.586Z,28.96
2023-03-18T00:06:47.851Z,29.08
2023-03-18T00:07:50.313Z,29.10
2023-03-18T00:08:52.548Z,29.20
2023-03-18T00:09:54.372Z,29.05
2023-03-18T00:10:56.913Z,29.04
2023-03-18T00:11:59.123Z,29.09
2023-03-18T00:13:04.434Z,29.05
2023-03-18T00:14:08.703Z,28.93
2023-03-18T00:15:14.223Z,28.92
2023-03-18T00:16:17.000Z,29.10
2023-03-18T00:17:20.328Z,28.99
2023-03-18T00:18:22.152Z,28.90
2023-03-18T00:19:25.234Z,28.95
2023-03-18T00:20:38.646Z,29.06
2023-03-18T00:21:40.676Z,29.09
2023-03-18T00:22:43.413Z,29.05
2023-03-18T00:23:45.225Z,29.15
2023-03-18T00:24:48.976Z,28.95
2023-03-18T00:25:54.701Z,28.97
2023-03-18T00:26:57.162Z,29.02
2023-03-18T00:27:59.299Z,29.12
2023-03-18T00:29:02.158Z,29.08
2023-03-18T00:30:05.854Z,29.05
2023-03-18T00:31:11.902Z,28.96
2023-03-18T00:32:14.674Z,28.92
2023-03-18T00:33:18.005Z,28.90
2023-03-18T00:34:20.949Z,28.96
2023-03-18T00:35:24.574Z,28.89
2023-03-18T00:36:26.510Z,28.90
2023-03-18T00:37:31.640Z,28.96
2023-03-18T00:38:35.480Z,28.99
2023-03-18T00:39:37.459Z,28.89
2023-03-18T00:40:43.373Z,29.05
2023-03-18T00:41:45.378Z,28.99
2023-03-18T00:42:47.662Z,28.98
2023-03-18T00:43:54.082Z,28.98
2023-03-18T00:44:56.642Z,29.11
2023-03-18T00:45:59.332Z,28.87
2023-03-18T00:47:01.407Z,29.05
2023-03-18T00:48:03.886Z,29.02
2023-03-18T00:49:08.732Z,29.11
2023-03-18T00:50:11.626Z,29.15
2023-03-18T00:51:17.015Z,28.93
2023-03-18T00:52:19.611Z,29.00
2023-03-18T00:53:21.553Z,29.03
2023-03-18T00:54:24.722Z,29.16
2023-03-18T00:55:27.423Z,29.02
2023-03-18T00:56:32.172Z,28.97
2023-03-18T00:57:34.699Z,29.09
2023-03-18T00:58:37.163Z,28.98
2023-03-18T00:59:39.069Z,29.03
2023-03-18T01:00:41.377Z,28.90
2023-03-18T01:01:43.269Z,28.91
2023-03-18T01:02:45.213Z,29.01
2023-03-18T01:03:50.084Z,28.89
2023-03-18T01:04:53.316Z,28.94
2023-03-18T01:05:56.487Z,29.09
2023-03-18T01:06:58.511Z,28.90
2023-03-18T01:08:00.656Z,28.95
2023-03-18T01:09:05.352Z,29.02
2023-03-18T01:10:09.207Z,28.93
2023-03-18T01:11:11.550Z,28.97
2023-03-18T01:12:13.751Z,28.95
2023-03-18T01:13:16.065Z,29.02
2023-03-18T01:14:19.886Z,28.95
2023-03-18T01:15:23.304Z,29.04
2023-03-18T01:16:25.330Z,28.97
2023-03-18T01:17:27.326Z,29.10
2023-03-18T01:18:30.023Z,28.92
2023-03-18T01:19:32.587Z,29.03
2023-03-18T01:20:35.808Z,28.93
2023-03-18T01:21:38.167Z,29.03
2023-03-18T01:22:43.095Z,28.90
2023-03-18T01:23:45.510Z,29.03
2023-03-18T01:24:47.351Z,28.95
2023-03-18T01:25:49.361Z,29.11
2023-03-18T01:26:51.150Z,28.98
2023-03-18T01:27:54.214Z,28.90
2023-03-18T01:28:56.074Z,28.92
2023-03-18T01:29:58.501Z,28.96
2023-03-18T01:31:00.553Z,29.03
2023-03-18T01:32:03.234Z,28.98
2023-03-18T01:33:07.669Z,29.11
2023-03-18T01:34:09.545Z,29.12
2023-03-18T01:35:12.604Z,28.95
2023-03-18T01:36:15.552Z,28.84
2023-03-18T01:37:19.581Z,28.98
2023-03-18T01:38:23.923Z,29.01
2023-03-18T01:39:25.829Z,28.96
2023-03-18T01:40:28.625Z,28.91
2023-03-18T01:41:31.195Z,28.84
2023-03-18T01:42:33.387Z,28.97
2023-03-18T01:43:40.631Z,28.99
2023-03-18T01:44:42.536Z,28.91
2023-03-18T01:45:54.062Z,28.93
2023-03-18T01:46:56.816Z,28.88
2023-03-18T01:47:58.770Z,28.84
2023-03-18T01:49:04.974Z,29.04
2023-03-18T01:50:07.169Z,28.94
2023-03-18T01:51:11.676Z,28.84
2023-03-18T01:52:21.396Z,28.93
2023-03-18T01:53:24.024Z,28.85
2023-03-18T01:54:31.525Z,29.02
2023-03-18T01:55:35.407Z,29.23
2023-03-18T01:56:41.395Z,28.86
2023-03-18T01:57:44.620Z,28.94
2023-03-18T01:58:52.545Z,29.04
2023-03-18T01:59:57.351Z,28.87
2023-03-18T02:01:09.785Z,28.91
2023-03-18T02:02:16.080Z,29.04
2023-03-18T02:03:20.297Z,28.91
2023-03-18T02:04:28.772Z,28.95
2023-03-18T02:05:30.765Z,28.87
2023-03-18T02:06:33.355Z,28.87
2023-03-18T02:07:36.993Z,28.78
2023-03-18T02:08:40.318Z,28.75
2023-03-18T02:09:42.335Z,28.91
2023-03-18T02:10:45.467Z,28.95
2023-03-18T02:11:51.737Z,29.12
2023-03-18T02:13:01.177Z,29.05
2023-03-18T02:14:04.192Z,28.82
2023-03-18T02:15:16.544Z,29.19
2023-03-18T02:16:32.439Z,28.84
2023-03-18T02:17:41.801Z,28.93
2023-03-18T02:19:29.181Z,28.77
2023-03-18T02:20:51.714Z,28.81
2023-03-18T02:22:22.688Z,28.78
2023-03-18T02:23:55.328Z,28.81
2023-03-18T02:25:31.778Z,28.67
2023-03-18T02:26:43.917Z,28.81
2023-03-18T02:27:59.262Z,28.93
2023-03-18T02:29:05.819Z,28.79
2023-03-18T02:30:18.741Z,28.96
2023-03-18T02:31:21.476Z,28.78
2023-03-18T02:32:28.767Z,28.82
2023-03-18T02:33:36.748Z,28.92
2023-03-18T02:34:40.826Z,28.82
2023-03-18T02:35:47.368Z,29.07
2023-03-18T02:36:49.329Z,28.73
2023-03-18T02:37:51.157Z,28.92
2023-03-18T02:38:53.049Z,29.09
2023-03-18T02:39:54.955Z,28.96
2023-03-18T02:40:57.075Z,28.93
2023-03-18T02:41:58.959Z,29.06
2023-03-18T02:43:32.419Z,28.89
2023-03-18T02:44:43.276Z,29.09
2023-03-18T02:46:06.589Z,29.00
2023-03-18T02:47:19.862Z,28.87
2023-03-18T02:48:29.230Z,29.01
2023-03-18T02:49:32.923Z,28.83
2023-03-18T02:50:34.833Z,28.85
2023-03-18T02:51:38.133Z,29.05
2023-03-18T02:52:40.019Z,28.93
2023-03-18T02:53:43.338Z,29.18
2023-03-18T02:54:45.356Z,28.84
2023-03-18T02:55:47.858Z,28.96
2023-03-18T02:56:49.980Z,29.06
2023-03-18T02:57:51.737Z,29.40
2023-03-18T02:58:53.708Z,29.12
2023-03-18T02:59:55.896Z,29.05
2023-03-18T03:00:57.747Z,28.80
2023-03-18T03:02:00.287Z,29.00
2023-03-18T03:03:02.223Z,29.05
2023-03-18T03:04:05.048Z,28.94
2023-03-18T03:05:09.193Z,28.98
2023-03-18T03:06:11.632Z,28.77
2023-03-18T03:07:13.662Z,29.04
2023-03-18T03:08:16.663Z,28.72
2023-03-18T03:09:18.981Z,29.01
2023-03-18T03:10:21.212Z,29.00
2023-03-18T03:11:23.747Z,29.03
2023-03-18T03:12:25.801Z,28.90
2023-03-18T03:13:28.226Z,28.90
2023-03-18T03:14:30.138Z,28.92
2023-03-18T03:15:33.143Z,29.14
2023-03-18T03:16:35.504Z,28.85
2023-03-18T03:17:37.561Z,29.15
2023-03-18T03:18:40.471Z,28.88
2023-03-18T03:19:42.358Z,28.89
2023-03-18T03:20:44.887Z,28.91
2023-03-18T03:21:46.761Z,29.07
2023-03-18T03:22:48.559Z,29.01
2023-03-18T03:23:51.470Z,28.92
2023-03-18T03:24:54.276Z,29.12
2023-03-18T03:25:57.191Z,28.88
2023-03-18T03:26:59.076Z,29.10
2023-03-18T03:28:01.349Z,28.91
2023-03-18T03:29:05.075Z,28.94
2023-03-18T03:30:11.763Z,29.32
2023-03-18T03:31:14.344Z,29.09
2023-03-18T03:32:17.098Z,28.89
2023-03-18T03:33:19.020Z,28.70
2023-03-18T03:34:20.871Z,28.93
2023-03-18T03:35:24.160Z,28.99
2023-03-18T03:36:26.587Z,29.18
2023-03-18T03:37:28.522Z,28.89
2023-03-18T03:38:30.365Z,28.96
2023-03-18T03:39:32.670Z,29.10
2023-03-18T03:40:35.091Z,29.09
2023-03-18T03:41:36.938Z,29.13
2023-03-18T03:42:39.245Z,28.99
2023-03-18T03:43:42.188Z,29.07
2023-03-18T03:44:43.994Z,29.18
2023-03-18T03:45:46.026Z,29.18
2023-03-18T03:46:48.583Z,29.03
2023-03-18T03:47:51.345Z,28.99
2023-03-18T03:48:53.242Z,29.01
2023-03-18T03:49:55.178Z,29.09
2023-03-18T03:50:57.156Z,29.09
2023-03-18T03:51:59.370Z,28.73
2023-03-18T03:53:02.491Z,29.05
2023-03-18T03:54:04.563Z,29.08
2023-03-18T03:55:09.952Z,28.82
2023-03-18T03:56:12.038Z,28.93
2023-03-18T03:57:13.965Z,29.03
2023-03-18T03:58:15.940Z,28.94
2023-03-18T03:59:18.942Z,29.10
2023-03-18T04:00:24.079Z,29.03
2023-03-18T04:01:27.266Z,28.92
2023-03-18T04:02:29.288Z,29.09
2023-03-18T04:03:31.223Z,28.97
2023-03-18T04:04:33.426Z,29.12
2023-03-18T04:05:35.257Z,29.20
2023-03-18T04:06:37.047Z,28.96
2023-03-18T04:07:41.353Z,28.91
2023-03-18T04:08:43.152Z,29.23
2023-03-18T04:09:45.032Z,29.12
2023-03-18T04:10:47.032Z,29.00
2023-03-18T04:11:48.884Z,29.13
2023-03-18T04:12:51.045Z,28.99
2023-03-18T04:13:53.146Z,29.04
2023-03-18T04:14:55.530Z,28.98
2023-03-18T04:15:57.382Z,29.05
2023-03-18T04:17:00.362Z,28.86
2023-03-18T04:18:06.749Z,29.16
2023-03-18T04:19:10.020Z,29.11
2023-03-18T04:20:13.355Z,29.14
2023-03-18T04:21:15.181Z,29.06
2023-03-18T04:22:18.259Z,28.88
2023-03-18T04:23:20.790Z,29.00
2023-03-18T04:24:23.423Z,29.00
2023-03-18T04:25:25.335Z,28.96
2023-03-18T04:26:28.432Z,29.20
2023-03-18T04:27:30.689Z,29.05
2023-03-18T04:28:33.011Z,28.77
2023-03-18T04:29:35.002Z,29.17
2023-03-18T04:30:37.247Z,28.93
2023-03-18T04:31:39.657Z,28.76
2023-03-18T04:32:41.491Z,29.10
2023-03-18T04:33:44.715Z,29.09
2023-03-18T04:34:46.723Z,29.29
2023-03-18T04:35:49.355Z,29.00
2023-03-18T04:36:51.323Z,29.13
2023-03-18T04:37:54.397Z,29.17
2023-03-18T04:38:56.981Z,28.95
2023-03-18T04:39:59.193Z,29.16
2023-03-18T04:41:01.150Z,28.95
2023-03-18T04:42:03.271Z,29.12
2023-03-18T04:43:05.146Z,29.21
2023-03-18T04:44:08.292Z,29.10
2023-03-18T04:45:10.911Z,28.91
2023-03-18T04:46:12.796Z,29.11
2023-03-18T04:47:14.692Z,29.01
2023-03-18T04:48:16.573Z,29.17
2023-03-18T04:49:18.866Z,28.83
2023-03-18T04:50:20.909Z,28.92
2023-03-18T04:51:22.858Z,28.94
2023-03-18T04:52:25.237Z,28.96
2023-03-18T04:53:27.065Z,29.08
2023-03-18T04:54:28.897Z,29.09
2023-03-18T04:55:31.254Z,29.01
2023-03-18T04:56:33.687Z,29.21
2023-03-18T04:57:37.700Z,28.85
2023-03-18T04:58:39.589Z,28.86
2023-03-18T04:59:41.731Z,29.01
2023-03-18T05:00:44.020Z,29.03
2023-03-18T05:01:46.094Z,28.92
2023-03-18T05:02:48.423Z,29.08
2023-03-18T05:03:50.965Z,29.00
2023-03-18T05:04:52.821Z,28.85
2023-03-18T05:05:54.830Z,28.83
2023-03-18T05:06:57.028Z,28.95
2023-03-18T05:07:59.824Z,28.94
2023-03-18T05:09:01.868Z,29.16
2023-03-18T05:10:08.543Z,29.17
2023-03-18T05:11:10.749Z,29.14
2023-03-18T05:12:15.033Z,29.06
2023-03-18T05:13:17.666Z,28.91
2023-03-18T05:14:19.521Z,29.06
2023-03-18T05:15:21.553Z,29.09
2023-03-18T05:16:24.687Z,29.07
2023-03-18T05:17:26.963Z,29.13
2023-03-18T05:18:28.798Z,28.88
2023-03-18T05:19:30.578Z,29.07
2023-03-18T05:20:32.662Z,28.93
2023-03-18T05:21:35.963Z,29.18
2023-03-18T05:22:37.843Z,28.92
2023-03-18T05:23:39.713Z,29.06
2023-03-18T05:24:43.214Z,29.09
2023-03-18T05:25:49.504Z,29.00
2023-03-18T05:26:51.485Z,28.97
2023-03-18T05:27:54.458Z,28.84
2023-03-18T05:28:57.204Z,29.00
2023-03-18T05:29:59.234Z,29.05
2023-03-18T05:31:01.185Z,28.96
2023-03-18T05:32:04.302Z,29.09
2023-03-18T05:33:06.247Z,28.92
2023-03-18T05:34:08.978Z,29.10
2023-03-18T05:35:11.479Z,28.96
2023-03-18T05:36:14.506Z,29.14
2023-03-18T05:37:16.874Z,28.91
2023-03-18T05:38:18.919Z,28.88
2023-03-18T05:39:20.815Z,29.04
2023-03-18T05:40:24.053Z,28.78
2023-03-18T05:41:25.954Z,28.92
2023-03-18T05:42:28.116Z,29.06
2023-03-18T05:43:30.026Z,29.27
2023-03-18T05:44:32.680Z,29.43
2023-03-18T05:45:36.287Z,29.33
2023-03-18T05:46:39.097Z,29.13
2023-03-18T05:47:40.965Z,29.29
2023-03-18T05:48:43.557Z,29.34
2023-03-18T05:49:45.675Z,29.31
2023-03-18T05:50:47.932Z,29.34
2023-03-18T05:51:52.664Z,29.40
2023-03-18T05:52:57.071Z,29.27
2023-03-18T05:53:59.219Z,29.20
2023-03-18T05:55:01.136Z,29.38
2023-03-18T05:56:02.973Z,29.50
2023-03-18T05:57:04.924Z,29.26
2023-03-18T05:58:07.790Z,29.36
2023-03-18T05:59:10.284Z,29.45
2023-03-18T06:00:13.500Z,29.36
2023-03-18T06:01:15.309Z,29.35
2023-03-18T06:02:17.539Z,29.29
2023-03-18T06:03:19.386Z,29.32
2023-03-18T06:04:21.881Z,29.29
2023-03-18T06:05:24.513Z,29.37
2023-03-18T06:06:27.529Z,29.31
2023-03-18T06:07:29.741Z,29.22
2023-03-18T06:08:31.868Z,29.41
2023-03-18T06:09:34.329Z,29.67
2023-03-18T06:10:36.672Z,29.11
2023-03-18T06:11:40.189Z,29.19
2023-03-18T06:12:42.691Z,29.15
2023-03-18T06:13:45.680Z,29.29
2023-03-18T06:14:48.781Z,29.28
2023-03-18T06:15:58.120Z,29.20
2023-03-18T06:17:00.220Z,29.27
2023-03-18T06:18:02.529Z,29.40
2023-03-18T06:19:05.741Z,29.18
2023-03-18T06:20:11.973Z,29.15
2023-03-18T06:21:14.470Z,29.24
2023-03-18T06:22:17.159Z,29.17
2023-03-18T06:23:19.364Z,29.30
2023-03-18T06:24:21.685Z,29.34
2023-03-18T06:25:24.039Z,29.06
2023-03-18T06:26:26.745Z,29.12
2023-03-18T06:27:28.858Z,29.26
2023-03-18T06:28:30.886Z,29.09
2023-03-18T06:29:33.702Z,29.16
2023-03-18T06:30:35.711Z,29.09
2023-03-18T06:31:38.117Z,29.07
2023-03-18T06:32:40.564Z,29.17
2023-03-18T06:33:44.489Z,29.31
2023-03-18T06:34:46.695Z,29.31
2023-03-18T06:35:49.628Z,29.36
2023-03-18T06:36:52.296Z,29.19
2023-03-18T06:37:54.908Z,29.20
2023-03-18T06:38:56.896Z,29.17
2023-03-18T06:39:58.886Z,29.03
2023-03-18T06:41:01.972Z,29.28
2023-03-18T06:42:04.877Z,28.88
2023-03-18T06:43:07.028Z,29.14
2023-03-18T06:44:08.869Z,29.15
2023-03-18T06:45:12.036Z,29.20
2023-03-18T06:46:14.547Z,29.10
2023-03-18T06:47:24.648Z,29.05
2023-03-18T06:48:26.782Z,29.21
2023-03-18T06:49:28.918Z,29.10
2023-03-18T06:50:32.095Z,29.06
2023-03-18T06:51:34.451Z,29.10
2023-03-18T06:52:37.320Z,29.17
2023-03-18T06:53:40.034Z,29.25
2023-03-18T06:54:42.167Z,29.22
2023-03-18T06:55:44.598Z,29.07
2023-03-18T06:56:46.969Z,29.01
2023-03-18T06:57:48.921Z,29.19
2023-03-18T06:58:51.408Z,29.27
2023-03-18T06:59:54.198Z,29.12
2023-03-18T07:00:56.154Z,29.17
2023-03-18T07:01:58.389Z,29.11
2023-03-18T07:03:01.585Z,29.33
2023-03-18T07:04:06.798Z,29.10
2023-03-18T07:05:09.945Z,29.27
2023-03-18T07:06:12.251Z,29.30
2023-03-18T07:07:14.589Z,29.12
2023-03-18T07:08:16.908Z,29.28
2023-03-18T07:09:19.856Z,29.30
2023-03-18T07:10:27.308Z,29.11
2023-03-18T07:11:29.968Z,29.11
2023-03-18T07:12:31.968Z,29.11
2023-03-18T07:13:34.604Z,29.13
2023-03-18T07:14:36.519Z,29.19
2023-03-18T07:15:39.146Z,29.25
2023-03-18T07:16:41.657Z,29.14
2023-03-18T07:17:45.225Z,29.21
2023-03-18T07:18:47.756Z,29.34
2023-03-18T07:19:49.609Z,29.15
2023-03-18T07:20:51.606Z,29.19
2023-03-18T07:21:53.911Z,29.54
2023-03-18T07:22:55.804Z,29.70
2023-03-18T07:23:58.172Z,29.96
2023-03-18T07:25:00.018Z,29.83
2023-03-18T07:26:01.820Z,29.69
2023-03-18T07:27:04.360Z,29.87
2023-03-18T07:28:06.351Z,29.60
2023-03-18T07:29:08.499Z,29.78
2023-03-18T07:30:11.453Z,29.51
2023-03-18T07:31:14.050Z,29.59
2023-03-18T07:32:16.029Z,29.58
2023-03-18T07:33:18.345Z,29.44
2023-03-18T07:34:21.345Z,29.44
2023-03-18T07:35:23.932Z,29.31
2023-03-18T07:36:27.001Z,29.31
2023-03-18T07:37:28.917Z,29.20
2023-03-18T07:38:30.880Z,29.14
2023-03-18T07:39:33.814Z,29.29
2023-03-18T07:40:36.748Z,29.28
2023-03-18T07:41:39.288Z,29.27
2023-03-18T07:42:41.203Z,29.12
2023-03-18T07:43:43.556Z,29.40
2023-03-18T07:44:45.668Z,29.15
2023-03-18T07:45:47.597Z,29.15
2023-03-18T07:46:49.562Z,29.18
2023-03-18T07:47:51.570Z,29.13
2023-03-18T07:48:53.950Z,29.28
2023-03-18T07:49:56.301Z,29.11
2023-03-18T07:50:59.461Z,29.21
2023-03-18T07:52:02.211Z,29.30
2023-03-18T07:53:04.918Z,29.28
2023-03-18T07:54:06.825Z,29.39
2023-03-18T07:55:09.665Z,29.15
2023-03-18T07:56:11.775Z,29.35
2023-03-18T07:57:14.125Z,29.47
2023-03-18T07:58:15.999Z,29.38
2023-03-18T07:59:18.845Z,29.30
2023-03-18T08:00:22.528Z,29.33
2023-03-18T08:01:25.676Z,29.28
2023-03-18T08:02:28.404Z,29.31
2023-03-18T08:03:30.284Z,29.20
2023-03-18T08:04:32.587Z,29.34
2023-03-18T08:05:35.244Z,29.40
2023-03-18T08:06:37.944Z,29.28
2023-03-18T08:07:39.768Z,29.21
2023-03-18T08:08:42.499Z,29.58
2023-03-18T08:09:44.874Z,29.40
2023-03-18T08:10:46.763Z,29.43
2023-03-18T08:11:48.755Z,29.42
2023-03-18T08:12:53.565Z,29.55
2023-03-18T08:13:55.859Z,29.40
2023-03-18T08:14:58.444Z,29.65
2023-03-18T08:16:00.307Z,29.32
2023-03-18T08:17:03.746Z,29.72
2023-03-18T08:18:09.087Z,29.68
2023-03-18T08:19:11.954Z,29.77
2023-03-18T08:20:14.694Z,29.81
2023-03-18T08:21:16.598Z,29.72
2023-03-18T08:22:19.341Z,29.85
2023-03-18T08:23:21.599Z,30.06
2023-03-18T08:24:24.525Z,29.57
2023-03-18T08:25:26.699Z,29.85
2023-03-18T08:26:28.516Z,29.68
2023-03-18T08:27:30.487Z,29.80
2023-03-18T08:28:32.672Z,29.89
2023-03-18T08:29:35.035Z,29.87
2023-03-18T08:30:39.615Z,29.76
2023-03-18T08:31:41.464Z,29.89
2023-03-18T08:32:44.718Z,29.72
2023-03-18T08:33:47.556Z,29.84
2023-03-18T08:34:49.416Z,29.95
2023-03-18T08:35:52.134Z,29.91
2023-03-18T08:36:54.121Z,30.10
2023-03-18T08:37:56.286Z,30.01
2023-03-18T08:38:58.353Z,29.88
2023-03-18T08:40:00.499Z,29.44
2023-03-18T08:41:04.285Z,29.84
2023-03-18T08:42:06.983Z,29.44
2023-03-18T08:43:09.964Z,29.88
2023-03-18T08:44:12.456Z,29.58
2023-03-18T08:45:15.864Z,29.70
2023-03-18T08:46:18.709Z,29.98
2023-03-18T08:47:21.328Z,29.95
2023-03-18T08:48:24.818Z,29.98
2023-03-18T08:49:26.887Z,29.82
2023-03-18T08:50:29.657Z,29.91
2023-03-18T08:51:32.652Z,29.85
2023-03-18T08:52:35.228Z,30.15
2023-03-18T08:53:38.297Z,29.76
2023-03-18T08:54:40.178Z,30.07
2023-03-18T08:55:42.275Z,29.89
2023-03-18T08:56:44.434Z,29.71
2023-03-18T08:57:47.880Z,30.01
2023-03-18T08:58:50.132Z,29.92
2023-03-18T08:59:52.024Z,29.90
2023-03-18T09:00:56.355Z,29.95
2023-03-18T09:01:58.533Z,29.79
2023-03-18T09:03:00.669Z,30.00
2023-03-18T09:04:02.822Z,29.89
2023-03-18T09:05:05.769Z,30.06
2023-03-18T09:06:07.978Z,29.76
2023-03-18T09:07:11.011Z,29.82
2023-03-18T09:08:13.594Z,29.78
2023-03-18T09:09:15.948Z,30.02
2023-03-18T09:10:18.376Z,29.76
2023-03-18T09:11:20.385Z,29.75
2023-03-18T09:12:22.840Z,29.98
2023-03-18T09:13:25.685Z,29.86
2023-03-18T09:14:27.604Z,29.86
2023-03-18T09:15:29.830Z,29.93
2023-03-18T09:16:31.753Z,29.77
2023-03-18T09:17:51.006Z,29.83
2023-03-18T09:18:55.789Z,29.74
2023-03-18T09:19:57.960Z,29.88
2023-03-18T09:20:59.813Z,29.83
2023-03-18T09:22:01.601Z,29.96
2023-03-18T09:23:04.019Z,29.95
2023-03-18T09:24:07.502Z,29.99
2023-03-18T09:25:10.616Z,29.86
2023-03-18T09:26:12.770Z,29.95
2023-03-18T09:27:14.983Z,29.84
2023-03-18T09:28:16.967Z,29.84
2023-03-18T09:29:18.960Z,30.04
2023-03-18T09:30:21.676Z,29.88
2023-03-18T09:31:23.590Z,30.29
2023-03-18T09:32:26.202Z,29.89
2023-03-18T09:33:28.480Z,29.93
2023-03-18T09:34:32.875Z,29.91
2023-03-18T09:35:35.722Z,30.12
2023-03-18T09:36:38.029Z,30.18
2023-03-18T09:37:40.868Z,30.08
2023-03-18T09:38:42.763Z,29.96
2023-03-18T09:39:47.693Z,30.16
2023-03-18T09:41:20.995Z,29.97
2023-03-18T09:42:37.730Z,30.26
2023-03-18T09:44:01.103Z,29.78
2023-03-18T09:45:20.174Z,30.02
2023-03-18T09:46:25.386Z,29.82
2023-03-18T09:47:33.471Z,29.94
2023-03-18T09:48:56.717Z,30.04
2023-03-18T09:50:17.082Z,29.83
2023-03-18T09:51:19.413Z,29.95
2023-03-18T09:52:53.646Z,29.97
2023-03-18T09:54:36.888Z,29.79
2023-03-18T09:55:57.145Z,29.94
2023-03-18T09:57:00.857Z,29.68
2023-03-18T09:58:15.447Z,30.03
2023-03-18T09:59:44.739Z,29.93
2023-03-18T10:00:47.884Z,30.04
2023-03-18T10:01:55.706Z,29.94
2023-03-18T10:03:14.359Z,29.96
2023-03-18T10:04:42.852Z,29.99
2023-03-18T10:05:53.746Z,30.06
2023-03-18T10:07:12.103Z,30.27
2023-03-18T10:08:24.642Z,29.95
2023-03-18T10:09:42.210Z,30.03
2023-03-18T10:10:47.408Z,30.03
2023-03-18T10:11:54.004Z,30.13
2023-03-18T10:13:21.598Z,30.00
2023-03-18T10:14:26.468Z,30.13
2023-03-18T10:15:46.237Z,30.00
2023-03-18T10:17:15.217Z,29.90
2023-03-18T10:18:22.124Z,29.98
2023-03-18T10:19:25.144Z,30.10
2023-03-18T10:20:35.831Z,30.24
2023-03-18T10:21:47.887Z,30.00
2023-03-18T10:23:14.923Z,30.05
2023-03-18T10:24:42.510Z,29.83
2023-03-18T10:25:54.719Z,29.97
2023-03-18T10:27:08.789Z,29.98
2023-03-18T10:28:50.295Z,29.89
2023-03-18T10:30:25.349Z,30.02
2023-03-18T10:31:33.433Z,30.00
2023-03-18T10:32:49.969Z,30.00
2023-03-18T10:34:17.046Z,30.24
2023-03-18T10:35:55.105Z,30.12
2023-03-18T10:37:17.939Z,30.02
2023-03-18T10:38:27.900Z,30.01
2023-03-18T10:39:31.493Z,30.19
2023-03-18T10:40:41.379Z,30.00
2023-03-18T10:41:49.983Z,30.28
2023-03-18T10:42:56.367Z,30.25
2023-03-18T10:44:03.273Z,29.63
2023-03-18T10:45:29.821Z,29.93
2023-03-18T10:46:35.684Z,30.16
2023-03-18T10:47:45.445Z,29.83
2023-03-18T10:49:07.923Z,30.17
2023-03-18T10:50:32.541Z,30.14
2023-03-18T10:51:53.842Z,30.09
2023-03-18T10:53:12.049Z,30.15
2023-03-18T10:54:24.264Z,30.02
2023-03-18T10:55:35.468Z,29.64
2023-03-18T10:56:37.804Z,30.16
2023-03-18T10:57:39.721Z,30.03
2023-03-18T10:58:43.371Z,30.31
2023-03-18T10:59:46.014Z,29.96
2023-03-18T11:00:47.861Z,30.04
2023-03-18T11:01:59.682Z,30.49
2023-03-18T11:03:04.388Z,30.81
2023-03-18T11:04:14.979Z,31.13
2023-03-18T11:05:27.079Z,31.13
2023-03-18T11:06:45.091Z,31.38
2023-03-18T11:08:07.825Z,31.18
2023-03-18T11:09:16.712Z,31.16
2023-03-18T11:10:25.857Z,31.15
2023-03-18T11:11:33.027Z,31.11
2023-03-18T11:12:36.298Z,30.97
2023-03-18T11:13:38.170Z,31.22
2023-03-18T11:14:40.344Z,30.96
2023-03-18T11:15:51.486Z,31.10
2023-03-18T11:17:19.282Z,31.06
2023-03-18T11:18:27.038Z,30.83
2023-03-18T11:19:39.352Z,30.82
2023-03-18T11:20:45.393Z,30.99
2023-03-18T11:21:49.062Z,31.14
2023-03-18T11:22:57.476Z,31.05
2023-03-18T11:24:10.906Z,31.09
2023-03-18T11:25:16.349Z,30.99
2023-03-18T11:26:26.610Z,31.16
2023-03-18T11:27:42.241Z,31.09
2023-03-18T11:28:45.545Z,31.11
2023-03-18T11:30:00.470Z,31.19
2023-03-18T11:31:06.482Z,31.19
2023-03-18T11:32:25.219Z,31.02
2023-03-18T11:33:35.054Z,31.25
2023-03-18T11:34:37.658Z,31.02
2023-03-18T11:36:05.079Z,30.95
2023-03-18T11:37:11.763Z,31.21
2023-03-18T11:38:21.740Z,31.23
2023-03-18T11:39:25.636Z,31.24
2023-03-18T11:40:28.939Z,31.34
2023-03-18T11:41:30.824Z,31.39
2023-03-18T11:42:32.823Z,31.43
2023-03-18T11:43:37.833Z,31.35
2023-03-18T11:44:40.538Z,31.63
2023-03-18T11:46:01.186Z,31.35
2023-03-18T11:47:12.437Z,31.55
2023-03-18T11:48:36.817Z,31.47
2023-03-18T11:49:39.187Z,31.37
2023-03-18T11:51:09.221Z,31.51
2023-03-18T11:52:14.091Z,31.44
2023-03-18T11:53:41.753Z,31.25
2023-03-18T11:55:23.538Z,31.17
2023-03-18T11:56:42.450Z,31.30
2023-03-18T11:58:21.696Z,31.18
2023-03-18T11:59:35.443Z,31.41
2023-03-18T12:00:52.560Z,31.27
2023-03-18T12:02:57.915Z,30.94
2023-03-18T12:04:39.945Z,31.26
2023-03-18T12:06:02.423Z,31.27
2023-03-18T12:07:45.605Z,31.09
2023-03-18T12:09:14.275Z,31.26
2023-03-18T12:11:27.092Z,30.98
2023-03-18T12:13:02.254Z,30.95
2023-03-18T12:14:45.912Z,30.84
2023-03-18T12:16:13.038Z,30.49
2023-03-18T12:17:46.748Z,30.26
2023-03-18T12:18:54.816Z,30.08
2023-03-18T12:20:43.866Z,29.81
2023-03-18T12:22:06.253Z,29.67
2023-03-18T12:24:13.066Z,29.49
2023-03-18T12:25:38.886Z,29.30
2023-03-18T12:27:10.494Z,29.17
2023-03-18T12:28:38.115Z,28.92
2023-03-18T12:30:36.680Z,28.74
2023-03-18T12:32:03.586Z,28.82
2023-03-18T12:33:29.634Z,28.72
2023-03-18T12:35:05.873Z,28.82
2023-03-18T12:36:30.045Z,28.66
2023-03-18T12:38:08.439Z,28.20
2023-03-18T12:39:47.853Z,28.68
2023-03-18T12:41:32.133Z,28.35
2023-03-18T12:43:05.026Z,28.17
2023-03-18T12:44:15.659Z,28.25
2023-03-18T12:45:22.865Z,28.31
2023-03-18T12:46:33.618Z,28.40
2023-03-18T12:47:48.013Z,28.23
2023-03-18T12:49:01.495Z,28.25
2023-03-18T12:50:16.156Z,28.15
2023-03-18T12:51:28.274Z,28.08
2023-03-18T12:52:40.214Z,28.25
2023-03-18T12:53:50.234Z,28.07
2023-03-18T12:55:21.653Z,27.88
2023-03-18T12:56:30.036Z,27.90
2023-03-18T12:58:02.019Z,27.87
2023-03-18T12:59:30.244Z,27.72
2023-03-18T13:00:57.124Z,27.83
2023-03-18T13:02:39.757Z,27.69
2023-03-18T13:03:45.976Z,27.85
2023-03-18T13:04:58.668Z,27.90
2023-03-18T13:06:43.808Z,27.82
2023-03-18T13:08:21.544Z,27.67
2023-03-18T13:09:50.930Z,27.84
2023-03-18T13:11:06.585Z,27.98
2023-03-18T13:12:33.343Z,27.58
2023-03-18T13:13:43.498Z,27.59
2023-03-18T13:15:16.657Z,27.56
2023-03-18T13:16:23.322Z,27.49
2023-03-18T13:17:46.107Z,27.56
2023-03-18T13:18:56.647Z,27.60
2023-03-18T13:20:09.982Z,27.63
2023-03-18T13:21:20.307Z,27.83
2023-03-18T13:22:51.957Z,27.80
2023-03-18T13:24:15.431Z,27.96
2023-03-18T13:25:51.360Z,27.68
2023-03-18T13:27:25.657Z,27.58
2023-03-18T13:28:58.851Z,27.61
2023-03-18T13:30:30.892Z,27.44
2023-03-18T13:31:52.317Z,27.42
2023-03-18T13:33:12.501Z,27.19
2023-03-18T13:34:29.513Z,27.00
2023-03-18T13:35:52.323Z,26.60
2023-03-18T13:37:15.720Z,26.67
2023-03-18T13:38:48.822Z,25.91
2023-03-18T13:40:12.812Z,26.13
2023-03-18T13:41:28.671Z,26.15
2023-03-18T13:42:36.124Z,25.98
2023-03-18T13:43:49.477Z,26.18
2023-03-18T13:44:56.784Z,26.06
2023-03-18T13:46:00.839Z,26.40
2023-03-18T13:47:09.113Z,26.21
2023-03-18T13:48:20.872Z,26.10
2023-03-18T13:49:29.907Z,26.37
2023-03-18T13:50:43.938Z,26.50
2023-03-18T13:51:56.606Z,26.30
2023-03-18T13:53:01.933Z,26.51
2023-03-18T13:54:13.462Z,26.78
2023-03-18T13:55:35.132Z,26.75
2023-03-18T13:56:43.194Z,26.75
2023-03-18T13:57:57.024Z,26.88
2023-03-18T13:59:06.392Z,26.96
2023-03-18T14:00:33.756Z,26.96
2023-03-18T14:02:00.280Z,26.97
2023-03-18T14:03:25.718Z,27.14
2023-03-18T14:04:51.442Z,27.11
2023-03-18T14:06:05.236Z,27.17
2023-03-18T14:07:17.732Z,27.31
2023-03-18T14:08:39.215Z,27.40
2023-03-18T14:10:18.504Z,27.53
2023-03-18T14:11:24.355Z,27.57
2023-03-18T14:12:34.915Z,27.57
2023-03-18T14:13:36.917Z,27.73
2023-03-18T14:14:55.218Z,27.60
2023-03-18T14:15:59.002Z,27.64
2023-03-18T14:17:01.607Z,27.95
2023-03-18T14:18:04.461Z,27.87
2023-03-18T14:19:24.232Z,27.86
2023-03-18T14:20:38.456Z,27.83
2023-03-18T14:22:05.354Z,27.92
2023-03-18T14:23:27.389Z,27.84
2023-03-18T14:24:29.241Z,27.96
2023-03-18T14:25:31.048Z,27.99
2023-03-18T14:26:33.272Z,27.90
2023-03-18T14:27:45.051Z,28.04
2023-03-18T14:28:55.142Z,28.08
2023-03-18T14:30:32.056Z,27.89
2023-03-18T14:31:39.769Z,28.07